Time;durP1;ratioP1;P1;durP2;ratioP2;P2;SDS_P1;SDS_P2;PMS_P1;PMS_P2;Temp;Humidity;BMP_temperature;BMP_pressure;BME280_temperature;BME280_humidity;BME280_pressure;Samples;Min_cycle;Max_cycle;Signal;HPM_P1;HPM_P2
2021/10/24 00:02:27;;;;;;;4.97;2.80;;;12.10;86.40;;;;;;5071923;28;20040;-73
2021/10/24 00:04:55;;;;;;;5.88;2.63;;;12.10;87.10;;;;;;5083035;28;20044;-74
2021/10/24 00:07:22;;;;;;;6.60;2.40;;;12.10;86.90;;;;;;5090159;28;20080;-74
2021/10/24 00:09:52;;;;;;;4.50;2.35;;;12.10;86.80;;;;;;5089148;28;20097;-74
2021/10/24 00:12:18;;;;;;;8.18;3.28;;;12.10;87.30;;;;;;5083222;28;20464;-74
2021/10/24 00:14:47;;;;;;;3.88;2.60;;;12.10;87.30;;;;;;5096253;28;20412;-74
2021/10/24 00:17:14;;;;;;;3.70;2.15;;;12.10;87.10;;;;;;5089949;28;20043;-74
2021/10/24 00:19:42;;;;;;;4.35;2.10;;;12.10;87.30;;;;;;5088590;28;20048;-74
2021/10/24 00:22:09;;;;;;;6.60;2.58;;;12.10;88.00;;;;;;5089917;28;20131;-74
2021/10/24 00:24:36;;;;;;;6.30;2.17;;;12.10;87.40;;;;;;5088180;28;20052;-74
2021/10/24 00:27:03;;;;;;;3.90;1.80;;;12.10;88.10;;;;;;5090248;28;20055;-74
2021/10/24 00:29:31;;;;;;;3.90;2.10;;;12.10;87.90;;;;;;5089175;28;20052;-72
2021/10/24 00:31:58;;;;;;;4.25;2.20;;;12.10;87.40;;;;;;5096781;28;20047;-74
2021/10/24 00:34:27;;;;;;;4.35;2.22;;;12.10;87.60;;;;;;5108183;28;20529;-74
2021/10/24 00:36:54;;;;;;;3.95;2.20;;;12.10;87.00;;;;;;5088535;28;20058;-74
2021/10/24 00:39:21;;;;;;;5.07;2.80;;;12.10;87.80;;;;;;5089296;28;20055;-74
2021/10/24 00:41:48;;;;;;;3.75;1.90;;;12.10;88.00;;;;;;5090124;28;20771;-74
2021/10/24 00:44:20;;;;;;;4.32;2.58;;;12.10;87.20;;;;;;5089873;28;20036;-75
2021/10/24 00:46:49;;;;;;;3.33;2.08;;;12.10;87.20;;;;;;5088221;28;20056;-75
2021/10/24 00:49:16;;;;;;;5.85;2.30;;;12.10;87.40;;;;;;5055266;28;20491;-74
2021/10/24 00:51:44;;;;;;;6.47;2.25;;;12.10;87.90;;;;;;5089011;28;20446;-75
2021/10/24 00:54:12;;;;;;;3.97;2.08;;;12.10;87.80;;;;;;5090118;28;20457;-74
2021/10/24 00:56:40;;;;;;;5.72;2.00;;;12.10;87.70;;;;;;5089394;28;20055;-75
2021/10/24 00:59:08;;;;;;;8.45;2.25;;;12.10;87.60;;;;;;5087954;28;20088;-74
2021/10/24 01:01:35;;;;;;;4.32;1.83;;;12.10;88.00;;;;;;5088970;28;20052;-75
2021/10/24 01:04:05;;;;;;;2.75;1.73;;;12.10;88.30;;;;;;5091512;28;20048;-75
2021/10/24 01:06:34;;;;;;;8.57;2.20;;;12.10;88.00;;;;;;5095212;28;20064;-73
2021/10/24 01:09:05;;;;;;;3.50;1.90;;;12.10;89.90;;;;;;5078616;28;20484;-74
2021/10/24 01:11:32;;;;;;;6.43;2.45;;;12.10;89.10;;;;;;5094463;28;20048;-74
2021/10/24 01:13:59;;;;;;;6.22;2.22;;;12.00;89.00;;;;;;5086187;28;20096;-73
2021/10/24 01:16:26;;;;;;;4.65;2.20;;;12.10;88.70;;;;;;5076945;28;20127;-74
2021/10/24 01:18:53;;;;;;;4.50;2.20;;;12.00;89.70;;;;;;5100034;28;20089;-74
2021/10/24 01:21:20;;;;;;;5.47;2.28;;;12.10;89.50;;;;;;5096590;28;20048;-73
2021/10/24 01:23:47;;;;;;;4.95;2.33;;;12.00;89.60;;;;;;5096860;28;20059;-73
2021/10/24 01:26:14;;;;;;;4.97;2.72;;;12.00;89.60;;;;;;5096171;28;20044;-74
2021/10/24 01:28:41;;;;;;;4.82;2.25;;;12.00;89.70;;;;;;5096898;28;20048;-74
2021/10/24 01:31:08;;;;;;;3.13;2.00;;;12.00;90.20;;;;;;5100381;28;20051;-74
2021/10/24 01:33:36;;;;;;;5.00;2.30;;;12.00;89.00;;;;;;5080514;28;20052;-74
2021/10/24 01:36:11;;;;;;;4.97;2.35;;;12.00;90.00;;;;;;5095340;28;20112;-74
2021/10/24 01:38:42;;;;;;;3.50;2.10;;;12.00;90.00;;;;;;5094578;28;20128;-74
2021/10/24 01:41:09;;;;;;;5.13;2.50;;;12.00;90.20;;;;;;5095507;28;20138;-73
2021/10/24 01:43:36;;;;;;;4.88;2.45;;;12.00;90.00;;;;;;5095437;28;20075;-75
2021/10/24 01:46:04;;;;;;;5.32;2.90;;;12.00;89.70;;;;;;5095223;28;20353;-75
2021/10/24 01:48:31;;;;;;;5.22;2.35;;;12.00;90.00;;;;;;5094560;28;20428;-73
2021/10/24 01:50:58;;;;;;;4.85;2.30;;;12.00;90.00;;;;;;5094104;28;20075;-74
2021/10/24 01:53:31;;;;;;;5.38;2.60;;;12.00;90.30;;;;;;5077448;28;20126;-75
2021/10/24 01:55:58;;;;;;;4.55;2.13;;;12.00;90.00;;;;;;5078117;28;20044;-75
2021/10/24 01:58:26;;;;;;;4.38;2.58;;;12.00;90.00;;;;;;5094938;28;20051;-74
2021/10/24 02:00:54;;;;;;;7.38;2.47;;;12.00;89.90;;;;;;5078354;28;20077;-74
2021/10/24 02:03:22;;;;;;;4.88;2.28;;;12.00;90.00;;;;;;5107200;28;20074;-74
2021/10/24 02:05:49;;;;;;;7.70;2.85;;;11.90;90.20;;;;;;5096038;28;20040;-75
2021/10/24 02:08:17;;;;;;;5.57;2.30;;;11.90;90.50;;;;;;5090887;28;20051;-73
2021/10/24 02:10:48;;;;;;;10.32;3.05;;;11.90;90.30;;;;;;5094976;28;20411;-74
2021/10/24 02:13:15;;;;;;;5.97;1.92;;;11.90;90.50;;;;;;5093725;28;20090;-74
2021/10/24 02:15:42;;;;;;;3.78;2.13;;;11.90;90.40;;;;;;5092617;28;20052;-73
2021/10/24 02:18:10;;;;;;;7.10;2.45;;;11.90;90.40;;;;;;5076571;28;20139;-74
2021/10/24 02:20:37;;;;;;;7.40;3.17;;;11.90;90.20;;;;;;5069626;28;20072;-75
2021/10/24 02:23:05;;;;;;;4.38;2.20;;;11.90;90.10;;;;;;5088964;28;20046;-75
2021/10/24 02:25:33;;;;;;;4.53;2.05;;;11.90;90.10;;;;;;5089733;28;20052;-75
2021/10/24 02:28:01;;;;;;;5.97;2.25;;;11.90;90.40;;;;;;5056974;28;20083;-72
2021/10/24 02:30:28;;;;;;;10.48;2.50;;;11.90;90.10;;;;;;5091139;28;20461;-74
2021/10/24 02:32:55;;;;;;;3.53;2.03;;;11.90;90.10;;;;;;5093637;28;20128;-75
2021/10/24 02:35:25;;;;;;;6.05;2.08;;;11.90;90.30;;;;;;5091290;28;20076;-74
2021/10/24 02:37:53;;;;;;;4.28;1.98;;;11.90;90.40;;;;;;5091601;28;20066;-75
2021/10/24 02:40:21;;;;;;;5.22;2.03;;;11.90;90.30;;;;;;5091947;28;20044;-76
2021/10/24 02:42:48;;;;;;;4.90;2.03;;;11.90;90.10;;;;;;5089457;28;20086;-75
2021/10/24 02:45:15;;;;;;;5.43;2.33;;;11.90;90.50;;;;;;5090849;28;20400;-75
2021/10/24 02:47:43;;;;;;;4.38;2.28;;;11.90;90.40;;;;;;5090485;28;20044;-75
2021/10/24 02:50:10;;;;;;;5.43;1.80;;;11.90;90.00;;;;;;5090205;28;20055;-75
2021/10/24 02:52:39;;;;;;;4.80;2.22;;;11.90;89.80;;;;;;5088997;28;20052;-74
2021/10/24 02:55:06;;;;;;;4.07;1.80;;;11.90;90.40;;;;;;5090969;28;20036;-75
2021/10/24 02:57:34;;;;;;;5.95;2.00;;;11.90;90.10;;;;;;5091057;28;20502;-74
2021/10/24 03:00:01;;;;;;;6.60;2.20;;;11.80;90.40;;;;;;5090772;28;20052;-75
2021/10/24 03:02:29;;;;;;;12.68;2.78;;;11.80;90.00;;;;;;5094374;28;20044;-74
2021/10/24 03:04:56;;;;;;;4.63;1.92;;;11.80;90.00;;;;;;5089818;28;20051;-74
2021/10/24 03:07:23;;;;;;;4.15;2.08;;;11.80;90.00;;;;;;5089328;28;20132;-73
2021/10/24 03:09:50;;;;;;;4.57;1.80;;;11.80;89.90;;;;;;5091430;28;20040;-73
2021/10/24 03:12:17;;;;;;;4.97;2.25;;;11.80;90.00;;;;;;5090594;28;20062;-74
2021/10/24 03:14:45;;;;;;;6.63;2.08;;;11.80;89.30;;;;;;5091258;28;20067;-74
2021/10/24 03:17:16;;;;;;;7.55;2.35;;;11.80;89.50;;;;;;5090260;28;20101;-74
2021/10/24 03:19:43;;;;;;;6.95;2.10;;;11.80;89.80;;;;;;5091114;28;20056;-75
2021/10/24 03:22:10;;;;;;;7.18;1.80;;;11.80;90.40;;;;;;5071303;28;20048;-74
2021/10/24 03:24:38;;;;;;;4.13;1.88;;;11.80;90.50;;;;;;5090130;28;20051;-75
2021/10/24 03:27:05;;;;;;;3.30;1.65;;;11.70;89.30;;;;;;5070191;28;20087;-75
2021/10/24 03:29:32;;;;;;;6.43;1.70;;;11.70;90.00;;;;;;5090121;28;20044;-74
2021/10/24 03:31:59;;;;;;;4.82;1.80;;;11.70;90.10;;;;;;5090354;28;20492;-74
2021/10/24 03:34:26;;;;;;;4.38;2.25;;;11.70;90.40;;;;;;5088947;28;20048;-74
2021/10/24 03:36:53;;;;;;;4.15;1.70;;;11.70;90.30;;;;;;5090291;28;20055;-75
2021/10/24 03:39:20;;;;;;;3.97;1.67;;;11.70;90.00;;;;;;5089994;28;20419;-74
2021/10/24 03:41:47;;;;;;;7.88;2.00;;;11.70;90.00;;;;;;5089618;28;20044;-75
2021/10/24 03:44:14;;;;;;;3.47;1.80;;;11.70;90.00;;;;;;5089830;28;20040;-75
2021/10/24 03:46:41;;;;;;;5.05;1.77;;;11.70;90.00;;;;;;5090155;28;20131;-74
2021/10/24 03:49:10;;;;;;;6.97;2.20;;;11.70;89.80;;;;;;5089644;28;20048;-74
2021/10/24 03:51:37;;;;;;;3.35;1.50;;;11.70;89.80;;;;;;5090608;28;20040;-73
2021/10/24 03:54:04;;;;;;;5.85;2.10;;;11.70;90.20;;;;;;5070757;28;20060;-74
2021/10/24 03:56:31;;;;;;;3.47;1.77;;;11.70;89.90;;;;;;5088144;28;20059;-74
2021/10/24 03:58:58;;;;;;;4.45;2.10;;;11.70;89.90;;;;;;5092366;28;20051;-74
2021/10/24 04:01:26;;;;;;;4.53;1.67;;;11.80;89.80;;;;;;5092493;28;20071;-75
2021/10/24 04:03:54;;;;;;;3.17;1.85;;;11.80;89.50;;;;;;5089735;28;20456;-75
2021/10/24 04:06:21;;;;;;;2.88;1.60;;;11.80;90.10;;;;;;5088084;28;20055;-73
2021/10/24 04:08:48;;;;;;;8.88;2.53;;;11.80;89.80;;;;;;5089569;28;20047;-74
2021/10/24 04:11:16;;;;;;;2.33;1.70;;;11.80;89.90;;;;;;5089678;28;20044;-74
2021/10/24 04:13:43;;;;;;;7.90;2.00;;;11.80;90.30;;;;;;5088911;28;20055;-73
2021/10/24 04:16:10;;;;;;;6.00;2.38;;;11.80;90.20;;;;;;5088952;28;20043;-75
2021/10/24 04:18:38;;;;;;;4.03;2.03;;;11.80;90.00;;;;;;5090509;28;20044;-74
2021/10/24 04:21:05;;;;;;;3.60;1.63;;;11.90;89.70;;;;;;5088288;28;20051;-74
2021/10/24 04:23:32;;;;;;;3.97;1.60;;;11.90;88.90;;;;;;5055431;28;20126;-74
2021/10/24 04:25:59;;;;;;;7.50;1.80;;;11.90;88.40;;;;;;5080692;28;20462;-73
2021/10/24 04:28:26;;;;;;;7.10;1.83;;;11.90;89.90;;;;;;5088895;28;20040;-74
2021/10/24 04:30:53;;;;;;;4.88;2.00;;;11.90;88.90;;;;;;5089323;28;20044;-74
2021/10/24 04:33:21;;;;;;;3.47;1.63;;;11.90;89.00;;;;;;5095748;28;20458;-73
2021/10/24 04:35:48;;;;;;;4.68;1.70;;;11.90;89.90;;;;;;5090252;28;20117;-75
2021/10/24 04:38:15;;;;;;;6.35;2.10;;;11.90;90.00;;;;;;5090038;28;20048;-74
2021/10/24 04:40:42;;;;;;;5.55;2.35;;;11.90;89.50;;;;;;5088017;28;20442;-73
2021/10/24 04:43:15;;;;;;;4.95;2.00;;;11.90;90.00;;;;;;5089302;28;20036;-73
2021/10/24 04:45:43;;;;;;;5.10;1.80;;;11.80;89.70;;;;;;5086429;28;20048;-73
2021/10/24 04:48:11;;;;;;;3.85;1.85;;;11.80;89.80;;;;;;5089440;28;20395;-73
2021/10/24 04:50:40;;;;;;;3.47;2.10;;;11.80;90.30;;;;;;5089229;28;20088;-73
2021/10/24 04:53:08;;;;;;;4.32;1.80;;;11.80;90.10;;;;;;5071975;28;20066;-74
2021/10/24 04:55:35;;;;;;;4.53;1.95;;;11.80;90.10;;;;;;5070168;28;20498;-74
2021/10/24 04:58:02;;;;;;;4.32;1.73;;;11.80;90.30;;;;;;5088870;28;20522;-74
2021/10/24 05:00:29;;;;;;;5.55;1.90;;;11.80;90.10;;;;;;5085546;28;20044;-74
2021/10/24 05:02:57;;;;;;;5.88;1.90;;;11.80;90.30;;;;;;5092439;28;20040;-74
2021/10/24 05:05:24;;;;;;;7.80;2.63;;;11.80;90.00;;;;;;5088207;28;20074;-74
2021/10/24 05:07:51;;;;;;;6.88;2.13;;;11.80;89.90;;;;;;5051341;28;20062;-73
2021/10/24 05:10:18;;;;;;;112.45;91.80;;;11.80;89.80;;;;;;5083624;28;20046;-69
2021/10/24 05:12:45;;;;;;;9.10;6.53;;;11.80;90.00;;;;;;5089832;28;20118;-73
2021/10/24 05:15:12;;;;;;;9.45;3.22;;;11.80;89.50;;;;;;5066678;28;20045;-75
2021/10/24 05:17:39;;;;;;;8.27;2.63;;;11.80;89.30;;;;;;5088885;28;20051;-74
2021/10/24 05:20:07;;;;;;;4.03;1.88;;;11.80;89.30;;;;;;5071321;28;20047;-74
2021/10/24 05:22:34;;;;;;;5.43;2.15;;;11.80;88.90;;;;;;5086606;28;20063;-74
2021/10/24 05:25:01;;;;;;;7.07;1.92;;;11.80;88.30;;;;;;5070780;28;20159;-74
2021/10/24 05:27:28;;;;;;;5.30;1.85;;;11.80;89.10;;;;;;5089649;28;20044;-73
2021/10/24 05:29:58;;;;;;;4.55;1.98;;;11.80;89.00;;;;;;5088147;28;20064;-72
2021/10/24 05:32:25;;;;;;;5.68;1.80;;;11.80;89.70;;;;;;5074013;28;20051;-73
2021/10/24 05:34:52;;;;;;;8.05;2.17;;;11.80;89.20;;;;;;5086951;28;20048;-73
2021/10/24 05:37:19;;;;;;;4.38;2.00;;;11.80;89.50;;;;;;5070597;28;20385;-72
2021/10/24 05:39:46;;;;;;;3.88;1.60;;;11.80;89.70;;;;;;5087281;28;20475;-73
2021/10/24 05:42:14;;;;;;;5.03;2.42;;;11.80;89.50;;;;;;5088962;28;20067;-73
2021/10/24 05:44:41;;;;;;;6.47;1.95;;;11.80;89.70;;;;;;5089018;28;20127;-73
2021/10/24 05:47:08;;;;;;;6.63;2.05;;;11.80;90.10;;;;;;5087958;28;20484;-73
2021/10/24 05:49:35;;;;;;;6.53;2.20;;;11.80;90.20;;;;;;5085480;28;20096;-73
2021/10/24 05:52:02;;;;;;;7.65;2.30;;;11.80;90.30;;;;;;5084948;28;20094;-73
2021/10/24 05:54:29;;;;;;;6.22;2.20;;;11.70;89.80;;;;;;5090883;28;20456;-74
2021/10/24 05:56:56;;;;;;;3.58;2.17;;;11.70;90.10;;;;;;5073192;28;20123;-73
2021/10/24 05:59:23;;;;;;;3.70;2.03;;;11.70;90.10;;;;;;5090580;28;20044;-73
2021/10/24 06:01:50;;;;;;;4.95;2.00;;;11.70;90.30;;;;;;5096279;28;20043;-74
2021/10/24 06:04:17;;;;;;;4.43;1.83;;;11.70;90.50;;;;;;5089844;28;20131;-74
2021/10/24 06:06:44;;;;;;;6.65;2.47;;;11.70;90.40;;;;;;5072504;28;20108;-74
2021/10/24 06:09:13;;;;;;;6.20;2.13;;;11.70;90.60;;;;;;5092431;28;20043;-74
2021/10/24 06:12:03;;;;;;;8.43;2.00;;;11.70;90.40;;;;;;5091072;28;20078;-73
2021/10/24 06:14:30;;;;;;;5.60;2.10;;;11.70;90.30;;;;;;5090453;28;20143;-73
2021/10/24 06:16:58;;;;;;;5.78;2.38;;;11.70;90.20;;;;;;5071333;28;20053;-75
2021/10/24 06:19:25;;;;;;;6.00;2.90;;;11.70;90.00;;;;;;5073745;28;20070;-72
2021/10/24 06:21:52;;;;;;;4.32;2.00;;;11.70;90.00;;;;;;5091957;28;20056;-74
2021/10/24 06:24:19;;;;;;;4.82;2.03;;;11.70;90.00;;;;;;5071908;28;20048;-73
2021/10/24 06:26:46;;;;;;;6.05;2.28;;;11.70;90.10;;;;;;5091132;28;20124;-72
2021/10/24 06:29:13;;;;;;;4.93;2.60;;;11.70;90.30;;;;;;5090668;28;20051;-73
2021/10/24 06:31:40;;;;;;;7.00;2.58;;;11.70;90.40;;;;;;5074274;28;20079;-82
2021/10/24 06:34:07;;;;;;;11.35;2.78;;;11.70;90.30;;;;;;5091318;28;20478;-73
2021/10/24 06:36:34;;;;;;;5.85;2.75;;;11.70;90.50;;;;;;5073933;28;20047;-74
2021/10/24 06:39:02;;;;;;;8.70;2.58;;;11.70;90.40;;;;;;5091923;28;20375;-74
2021/10/24 06:41:29;;;;;;;5.90;2.50;;;11.70;90.90;;;;;;5090996;28;20459;-74
2021/10/24 06:43:57;;;;;;;5.63;2.03;;;11.70;90.30;;;;;;5090485;28;20105;-74
2021/10/24 06:46:24;;;;;;;4.15;2.28;;;11.70;90.80;;;;;;5091342;28;20066;-74
2021/10/24 06:48:51;;;;;;;6.07;2.05;;;11.70;90.80;;;;;;5089564;28;20044;-74
2021/10/24 06:51:18;;;;;;;2.70;1.85;;;11.70;90.30;;;;;;5073947;28;20052;-73
2021/10/24 06:53:45;;;;;;;6.85;2.42;;;11.70;90.50;;;;;;5090396;28;20044;-74
2021/10/24 06:56:12;;;;;;;10.65;3.75;;;11.70;90.60;;;;;;5090099;28;20051;-75
2021/10/24 06:58:41;;;;;;;3.70;1.83;;;11.70;90.40;;;;;;5090797;28;20097;-74
2021/10/24 07:01:08;;;;;;;5.70;2.60;;;11.70;90.10;;;;;;5090684;28;20048;-74
2021/10/24 07:03:36;;;;;;;5.15;2.40;;;11.70;90.50;;;;;;5098679;28;20051;-73
2021/10/24 07:06:04;;;;;;;5.25;2.30;;;11.70;89.90;;;;;;5080643;28;20068;-73
2021/10/24 07:08:32;;;;;;;3.97;2.08;;;11.70;90.20;;;;;;5072446;28;20751;-73
2021/10/24 07:10:59;;;;;;;3.25;2.03;;;11.70;90.30;;;;;;5091131;28;20050;-73
2021/10/24 07:13:26;;;;;;;3.42;2.45;;;11.70;90.30;;;;;;5055979;28;20051;-73
2021/10/24 07:15:55;;;;;;;4.82;1.92;;;11.70;90.20;;;;;;5090194;28;20076;-73
2021/10/24 07:18:25;;;;;;;5.50;2.28;;;11.80;90.10;;;;;;5089900;28;20077;-73
2021/10/24 07:20:52;;;;;;;3.55;2.22;;;11.80;90.40;;;;;;5057285;28;20484;-73
2021/10/24 07:23:19;;;;;;;4.30;2.42;;;11.80;90.20;;;;;;5089557;28;20098;-73
2021/10/24 07:25:46;;;;;;;120.88;87.05;;;11.80;90.20;;;;;;5088156;28;20117;-73
2021/10/24 07:28:13;;;;;;;16.90;9.25;;;11.80;90.10;;;;;;5089626;28;20127;-72
2021/10/24 07:30:40;;;;;;;6.30;3.03;;;11.90;90.20;;;;;;5071055;28;20120;-72
2021/10/24 07:33:08;;;;;;;6.30;2.15;;;11.90;89.70;;;;;;5090813;28;20423;-73
2021/10/24 07:35:35;;;;;;;5.18;2.28;;;11.90;89.90;;;;;;5086489;28;20512;-73
2021/10/24 07:38:05;;;;;;;3.47;2.10;;;11.90;90.30;;;;;;5089570;28;20521;-73
2021/10/24 07:40:35;;;;;;;7.22;2.15;;;11.90;90.20;;;;;;5089241;28;20077;-74
2021/10/24 07:43:02;;;;;;;4.13;1.60;;;11.90;90.10;;;;;;5090463;28;20116;-73
2021/10/24 07:45:30;;;;;;;4.22;2.22;;;11.90;90.40;;;;;;5091011;28;20051;-72
2021/10/24 07:47:57;;;;;;;6.10;2.42;;;11.90;90.50;;;;;;5069729;28;20048;-73
2021/10/24 07:50:26;;;;;;;5.43;2.10;;;11.90;90.60;;;;;;5089613;28;20112;-73
2021/10/24 07:52:53;;;;;;;7.82;2.15;;;12.00;91.00;;;;;;5090568;28;20445;-73
2021/10/24 07:55:20;;;;;;;6.28;2.47;;;12.00;90.60;;;;;;5069160;28;20090;-73
2021/10/24 07:57:47;;;;;;;7.45;2.33;;;12.00;90.50;;;;;;5081571;28;20052;-73
2021/10/24 08:00:14;;;;;;;4.53;2.20;;;12.00;90.60;;;;;;5092585;28;20135;-73
2021/10/24 08:02:41;;;;;;;6.63;2.38;;;12.10;90.30;;;;;;5094473;28;20400;-73
2021/10/24 08:05:08;;;;;;;5.22;2.53;;;12.10;90.60;;;;;;5090706;28;20381;-73
2021/10/24 08:07:39;;;;;;;8.40;2.50;;;12.10;90.30;;;;;;5068404;28;20056;-73
2021/10/24 08:10:07;;;;;;;5.20;2.53;;;12.10;90.60;;;;;;5054116;28;20503;-73
2021/10/24 08:12:35;;;;;;;7.35;2.17;;;12.20;90.60;;;;;;5076581;28;20052;-73
2021/10/24 08:15:02;;;;;;;6.22;2.35;;;12.20;90.20;;;;;;5089090;28;20048;-73
2021/10/24 08:17:29;;;;;;;4.35;2.10;;;12.20;89.70;;;;;;5093126;28;20085;-73
2021/10/24 08:19:56;;;;;;;4.78;1.92;;;12.20;90.20;;;;;;5092268;28;20404;-73
2021/10/24 08:22:23;;;;;;;5.30;2.95;;;12.20;90.30;;;;;;5089415;28;20052;-73
2021/10/24 08:24:51;;;;;;;5.25;2.40;;;12.20;90.60;;;;;;5090284;28;20357;-73
2021/10/24 08:27:18;;;;;;;4.00;2.17;;;12.30;90.50;;;;;;5089821;28;20486;-72
2021/10/24 08:29:45;;;;;;;5.38;2.25;;;12.30;90.40;;;;;;5071552;28;20499;-72
2021/10/24 08:32:12;;;;;;;7.43;2.10;;;12.30;90.40;;;;;;5093934;28;20048;-73
2021/10/24 08:34:40;;;;;;;6.18;2.15;;;12.40;90.50;;;;;;5089168;28;20100;-72
2021/10/24 08:37:08;;;;;;;6.07;2.03;;;12.40;90.20;;;;;;5088891;28;20075;-72
2021/10/24 08:39:36;;;;;;;4.43;1.95;;;12.40;88.40;;;;;;5087146;28;20060;-73
2021/10/24 08:42:03;;;;;;;5.70;2.08;;;12.50;90.50;;;;;;5087762;28;20060;-72
2021/10/24 08:44:30;;;;;;;6.28;2.50;;;12.60;90.30;;;;;;5088199;28;20424;-73
2021/10/24 08:46:58;;;;;;;3.92;2.28;;;12.60;89.20;;;;;;5089248;28;20048;-73
2021/10/24 08:49:25;;;;;;;7.32;2.30;;;12.70;89.30;;;;;;5088383;28;20055;-73
2021/10/24 08:51:52;;;;;;;5.47;2.42;;;12.80;89.70;;;;;;5088133;28;20112;-72
2021/10/24 08:54:23;;;;;;;6.63;2.45;;;12.80;88.20;;;;;;5071511;28;20040;-73
2021/10/24 08:56:50;;;;;;;4.35;2.17;;;12.90;89.60;;;;;;5071281;28;20036;-73
2021/10/24 08:59:17;;;;;;;7.75;3.00;;;12.90;89.60;;;;;;5088240;28;20132;-72
2021/10/24 09:01:54;;;;;;;4.80;2.03;;;13.00;89.90;;;;;;5090037;28;20047;-73
2021/10/24 09:04:22;;;;;;;4.85;1.90;;;13.10;87.30;;;;;;5084536;28;20052;-73
2021/10/24 09:06:59;;;;;;;5.82;2.08;;;13.20;89.30;;;;;;5078183;28;20040;-73
2021/10/24 09:09:31;;;;;;;7.43;1.95;;;13.30;88.80;;;;;;5078494;28;20081;-73
2021/10/24 09:12:09;;;;;;;2.63;1.80;;;13.30;87.70;;;;;;5089741;28;20109;-72
2021/10/24 09:14:55;;;;;;;5.63;2.40;;;13.40;86.90;;;;;;5097994;28;20044;-73
2021/10/24 09:17:35;;;;;;;4.80;2.90;;;13.50;85.40;;;;;;5088926;28;20048;-73
2021/10/24 09:20:02;;;;;;;;;;;13.50;87.70;;;;;;5078613;28;20044;-73
2021/10/24 09:22:37;;;;;;;3.97;1.50;;;13.50;86.60;;;;;;5087694;28;19928;-73
2021/10/24 09:25:14;;;;;;;6.57;4.00;;;13.50;86.70;;;;;;5089413;28;20048;-72
2021/10/24 09:27:53;;;;;;;78.25;69.78;;;13.50;86.00;;;;;;5090730;28;20100;-75
2021/10/24 09:30:23;;;;;;;6.47;3.00;;;13.50;85.80;;;;;;5090459;28;20068;-73
2021/10/24 09:33:10;;;;;;;3.60;2.08;;;13.40;84.90;;;;;;5096306;28;20059;-73
2021/10/24 09:35:38;;;;;;;4.22;1.55;;;13.50;84.60;;;;;;5079539;28;20494;-73
2021/10/24 09:38:12;;;;;;;5.53;1.98;;;13.40;84.70;;;;;;5092398;28;20131;-72
2021/10/24 09:40:40;;;;;;;5.03;1.95;;;13.40;83.90;;;;;;5074018;28;20044;-72
2021/10/24 09:43:10;;;;;;;4.03;2.25;;;13.40;83.80;;;;;;5074888;28;20131;-73
2021/10/24 09:45:41;;;;;;;5.72;2.40;;;13.40;84.10;;;;;;5090931;28;20052;-72
2021/10/24 09:48:18;;;;;;;6.65;2.08;;;13.30;84.20;;;;;;5075249;28;20047;-73
2021/10/24 09:50:52;;;;;;;5.78;1.83;;;13.30;85.40;;;;;;5091817;28;20223;-72
2021/10/24 09:53:20;;;;;;;5.68;2.13;;;13.30;85.20;;;;;;5093792;28;20040;-73
2021/10/24 09:56:07;;;;;;;5.82;1.92;;;13.30;84.90;;;;;;5092830;28;20063;-72
2021/10/24 09:58:35;;;;;;;6.43;2.85;;;13.30;85.40;;;;;;5092260;28;20044;-72
2021/10/24 10:01:07;;;;;;;4.93;2.60;;;13.30;86.00;;;;;;5092481;28;20555;-71
2021/10/24 10:03:36;;;;;;;5.18;2.40;;;13.30;85.20;;;;;;5091910;28;20052;-68
2021/10/24 10:06:04;;;;;;;28.77;19.80;;;13.20;84.60;;;;;;5094158;28;20044;-72
2021/10/24 10:08:42;;;;;;;14.15;5.93;;;13.20;85.60;;;;;;5091801;28;20501;-71
2021/10/24 10:11:31;;;;;;;6.85;2.78;;;13.20;85.20;;;;;;5087491;28;20044;-71
2021/10/24 10:14:15;;;;;;;4.90;2.28;;;13.20;87.50;;;;;;5080392;28;20384;-71
2021/10/24 10:16:44;;;;;;;5.32;1.90;;;13.20;86.40;;;;;;5091790;28;20044;-71
2021/10/24 10:19:13;;;;;;;6.83;1.80;;;13.20;86.70;;;;;;5092813;28;20471;-71
2021/10/24 10:21:47;;;;;;;4.18;2.15;;;13.30;86.00;;;;;;5091911;28;20095;-71
2021/10/24 10:25:02;;;;;;;11.38;4.07;;;13.30;87.60;;;;;;5091737;28;20127;-71
2021/10/24 10:27:34;;;;;;;9.85;2.67;;;13.40;85.90;;;;;;4997499;28;20120;-71
2021/10/24 10:30:04;;;;;;;6.88;2.33;;;13.60;86.10;;;;;;5087963;28;20360;-71
2021/10/24 10:32:36;;;;;;;7.85;2.33;;;13.60;85.30;;;;;;5093350;28;20044;-71
2021/10/24 10:35:13;;;;;;;6.10;1.95;;;13.70;83.70;;;;;;5076269;28;20048;-71
2021/10/24 10:37:58;;;;;;;11.13;3.30;;;13.70;84.70;;;;;;5104690;28;20044;-71
2021/10/24 10:40:26;;;;;;;20.08;6.90;;;13.60;84.30;;;;;;5090602;28;20135;-71
2021/10/24 10:42:54;;;;;;;4.95;2.70;;;13.70;84.80;;;;;;5092528;28;20156;-71
2021/10/24 10:45:42;;;;;;;8.30;3.10;;;13.60;84.70;;;;;;5074036;28;20488;-71
2021/10/24 10:48:21;;;;;;;6.30;2.42;;;13.50;83.90;;;;;;5074873;28;20135;-71
2021/10/24 10:50:52;;;;;;;5.00;2.35;;;13.50;82.70;;;;;;5088206;28;20495;-71
2021/10/24 10:53:45;;;;;;;8.10;2.60;;;13.50;83.80;;;;;;5054998;28;20110;-71
2021/10/24 10:56:19;;;;;;;19.80;4.13;;;13.50;84.70;;;;;;5091613;28;20109;-71
2021/10/24 10:58:48;;;;;;;79.18;9.85;;;13.60;81.90;;;;;;5074715;28;20051;-71
2021/10/24 11:01:28;;;;;;;8.67;3.13;;;13.60;84.10;;;;;;5092188;28;20048;-72
2021/10/24 11:03:58;;;;;;;7.57;3.55;;;13.60;82.70;;;;;;5096888;28;20048;-72
2021/10/24 11:06:26;;;;;;;13.20;3.80;;;13.60;80.90;;;;;;5090451;28;20452;-72
2021/10/24 11:09:01;;;;;;;6.75;2.65;;;13.70;81.80;;;;;;5091476;28;20391;-72
2021/10/24 11:11:40;;;;;;;7.07;1.90;;;13.60;82.20;;;;;;5091856;28;20100;-71
2021/10/24 11:14:10;;;;;;;8.05;3.35;;;13.60;82.20;;;;;;5090844;28;20051;-71
2021/10/24 11:16:46;;;;;;;9.18;2.33;;;13.60;81.90;;;;;;5092166;28;20056;-71
2021/10/24 11:19:58;;;;;;;4.80;1.80;;;13.50;82.80;;;;;;5089726;28;20047;-71
2021/10/24 11:22:18;;;;;;;3.88;1.75;;;13.50;82.20;;;;;;5089650;28;20047;-77
2021/10/24 11:24:50;;;;;;;4.75;2.28;;;13.50;81.40;;;;;;5084299;28;20075;-68
2021/10/24 11:27:22;;;;;;;4.45;1.95;;;13.50;81.80;;;;;;5079250;28;20044;-68
2021/10/24 11:29:50;;;;;;;6.00;1.90;;;13.50;82.30;;;;;;5083705;28;20519;-67
2021/10/24 11:32:33;;;;;;;7.22;2.28;;;13.60;82.70;;;;;;5084920;28;20058;-68
2021/10/24 11:35:18;;;;;;;8.23;2.22;;;13.70;83.60;;;;;;5067402;28;20066;-66
2021/10/24 11:37:49;;;;;;;5.40;2.05;;;13.80;83.30;;;;;;5080022;28;20055;-66
2021/10/24 11:40:36;;;;;;;4.20;2.25;;;13.80;83.00;;;;;;5084908;28;20514;-73
2021/10/24 11:43:15;;;;;;;5.35;1.90;;;13.80;83.80;;;;;;5067405;28;20040;-69
2021/10/24 11:45:55;;;;;;;8.43;2.13;;;13.90;83.60;;;;;;5086021;28;20194;-68
2021/10/24 11:48:26;;;;;;;4.93;2.13;;;14.00;84.10;;;;;;5083937;28;20056;-66
2021/10/24 11:51:10;;;;;;;5.25;2.40;;;14.10;83.60;;;;;;5070971;28;20135;-66
2021/10/24 11:53:38;;;;;;;8.02;2.75;;;14.20;82.70;;;;;;5087974;28;20510;-73
2021/10/24 11:56:09;;;;;;;5.10;2.15;;;14.10;83.10;;;;;;5074126;28;20495;-68
2021/10/24 12:01:19;;;;;;;6.05;2.40;;;14.10;82.70;;;;;;5096393;28;20044;-69
2021/10/24 12:03:57;;;;;;;5.50;2.10;;;14.10;84.00;;;;;;5099777;28;20071;-68
2021/10/24 12:06:49;;;;;;;24.63;18.85;;;14.00;80.90;;;;;;5072179;28;20059;-68
2021/10/24 12:09:40;;;;;;;8.23;2.90;;;14.00;80.70;;;;;;5095428;28;20047;-68
2021/10/24 12:12:18;;;;;;;6.95;2.88;;;13.90;78.80;;;;;;5067940;28;20052;-69
2021/10/24 12:15:13;;;;;;;4.22;2.00;;;13.80;80.60;;;;;;5099408;28;20046;-69
2021/10/24 12:17:41;;;;;;;6.43;2.70;;;13.80;81.60;;;;;;5081003;28;20055;-69
2021/10/24 12:20:28;;;;;;;5.30;2.30;;;13.70;80.60;;;;;;5094665;28;20082;-69
2021/10/24 12:23:02;;;;;;;5.32;2.45;;;13.80;82.10;;;;;;5088494;28;20083;-68
2021/10/24 12:25:40;;;;;;;5.82;2.80;;;13.90;81.40;;;;;;5081234;28;20044;-69
2021/10/24 12:28:22;;;;;;;6.78;2.08;;;14.00;81.20;;;;;;5077173;28;20066;-68
2021/10/24 12:31:15;;;;;;;5.75;2.50;;;14.10;79.70;;;;;;5085676;28;20075;-68
2021/10/24 12:33:43;;;;;;;6.65;2.17;;;14.20;80.00;;;;;;5103718;28;20051;-68
2021/10/24 12:36:16;;;;;;;5.40;2.10;;;14.20;80.40;;;;;;5087447;28;20044;-68
2021/10/24 12:38:56;;;;;;;9.13;3.55;;;14.20;78.90;;;;;;5074487;28;20047;-68
2021/10/24 12:41:35;;;;;;;5.03;2.33;;;14.30;80.30;;;;;;5094734;28;20098;-68
2021/10/24 12:44:10;;;;;;;6.25;1.98;;;14.30;78.40;;;;;;5071672;28;20051;-68
2021/10/24 12:46:38;;;;;;;5.05;2.60;;;14.30;80.00;;;;;;5065606;28;20442;-68
2021/10/24 12:49:10;;;;;;;5.38;2.63;;;14.20;80.80;;;;;;5067983;28;20040;-69
2021/10/24 12:51:37;;;;;;;7.35;2.38;;;14.10;82.10;;;;;;5070126;28;20044;-68
2021/10/24 12:54:05;;;;;;;4.55;2.65;;;14.10;81.40;;;;;;5087773;28;20491;-69
2021/10/24 12:56:37;;;;;;;8.75;3.47;;;14.10;82.10;;;;;;5085309;28;20040;-69
2021/10/24 12:59:04;;;;;;;7.88;2.65;;;14.10;81.00;;;;;;5086184;28;20142;-69
2021/10/24 13:01:33;;;;;;;6.15;2.30;;;14.10;81.80;;;;;;5090043;28;20111;-69
2021/10/24 13:04:01;;;;;;;6.25;2.15;;;14.10;83.00;;;;;;5065759;28;20110;-69